sensor_id;sensor_type;location;lat;lon;timestamp;P1;durP1;ratioP1;P2;durP2;ratioP2
43990;SDS011;29654;50.784;20.604;2023-03-04T00:01:11;19.85;;;14.40;;
43990;SDS011;29654;50.784;20.604;2023-03-04T00:06:14;19.52;;;13.80;;
43990;SDS011;29654;50.784;20.604;2023-03-04T00:11:16;19.05;;;14.25;;
43990;SDS011;29654;50.784;20.604;2023-03-04T00:16:21;18.20;;;12.82;;
43990;SDS011;29654;50.784;20.604;2023-03-04T00:21:26;18.65;;;13.48;;
43990;SDS011;29654;50.784;20.604;2023-03-04T00:26:28;17.20;;;12.65;;
43990;SDS011;29654;50.784;20.604;2023-03-04T00:31:33;16.45;;;12.05;;
43990;SDS011;29654;50.784;20.604;2023-03-04T00:36:35;18.75;;;13.00;;
43990;SDS011;29654;50.784;20.604;2023-03-04T00:41:38;16.85;;;12.57;;
43990;SDS011;29654;50.784;20.604;2023-03-04T00:46:43;22.10;;;14.63;;
43990;SDS011;29654;50.784;20.604;2023-03-04T00:51:45;18.25;;;12.25;;
43990;SDS011;29654;50.784;20.604;2023-03-04T00:56:48;17.45;;;12.75;;
43990;SDS011;29654;50.784;20.604;2023-03-04T01:01:52;19.55;;;13.75;;
43990;SDS011;29654;50.784;20.604;2023-03-04T01:06:55;19.83;;;13.57;;
43990;SDS011;29654;50.784;20.604;2023-03-04T01:11:58;19.63;;;14.02;;
43990;SDS011;29654;50.784;20.604;2023-03-04T01:17:02;18.35;;;12.27;;
43990;SDS011;29654;50.784;20.604;2023-03-04T01:22:04;19.90;;;14.80;;
43990;SDS011;29654;50.784;20.604;2023-03-04T01:27:07;17.30;;;13.35;;
43990;SDS011;29654;50.784;20.604;2023-03-04T01:32:11;17.10;;;12.57;;
43990;SDS011;29654;50.784;20.604;2023-03-04T01:37:15;17.10;;;13.00;;
43990;SDS011;29654;50.784;20.604;2023-03-04T01:42:20;16.90;;;12.60;;
43990;SDS011;29654;50.784;20.604;2023-03-04T01:47:27;17.20;;;12.35;;
43990;SDS011;29654;50.784;20.604;2023-03-04T01:52:32;18.75;;;12.55;;
43990;SDS011;29654;50.784;20.604;2023-03-04T01:57:35;15.90;;;11.38;;
43990;SDS011;29654;50.784;20.604;2023-03-04T02:02:42;20.15;;;12.40;;
43990;SDS011;29654;50.784;20.604;2023-03-04T02:07:45;18.30;;;12.90;;
43990;SDS011;29654;50.784;20.604;2023-03-04T02:12:48;19.10;;;13.65;;
43990;SDS011;29654;50.784;20.604;2023-03-04T02:17:52;17.77;;;12.68;;
43990;SDS011;29654;50.784;20.604;2023-03-04T02:22:56;20.88;;;13.98;;
43990;SDS011;29654;50.784;20.604;2023-03-04T02:28:08;20.83;;;13.48;;
43990;SDS011;29654;50.784;20.604;2023-03-04T02:33:13;21.23;;;13.18;;
43990;SDS011;29654;50.784;20.604;2023-03-04T02:38:18;20.35;;;13.93;;
43990;SDS011;29654;50.784;20.604;2023-03-04T02:43:22;19.58;;;13.57;;
43990;SDS011;29654;50.784;20.604;2023-03-04T02:48:25;20.63;;;14.55;;
43990;SDS011;29654;50.784;20.604;2023-03-04T02:53:28;22.88;;;15.02;;
43990;SDS011;29654;50.784;20.604;2023-03-04T02:58:32;23.25;;;14.50;;
43990;SDS011;29654;50.784;20.604;2023-03-04T03:03:35;23.70;;;15.45;;
43990;SDS011;29654;50.784;20.604;2023-03-04T03:08:37;19.48;;;12.57;;
43990;SDS011;29654;50.784;20.604;2023-03-04T03:13:42;22.83;;;14.88;;
43990;SDS011;29654;50.784;20.604;2023-03-04T03:18:44;21.75;;;14.27;;
43990;SDS011;29654;50.784;20.604;2023-03-04T03:23:47;22.50;;;15.23;;
43990;SDS011;29654;50.784;20.604;2023-03-04T03:28:51;21.33;;;13.27;;
43990;SDS011;29654;50.784;20.604;2023-03-04T03:33:55;21.05;;;13.00;;
43990;SDS011;29654;50.784;20.604;2023-03-04T03:38:58;18.80;;;11.73;;
43990;SDS011;29654;50.784;20.604;2023-03-04T03:44:02;17.38;;;11.27;;
43990;SDS011;29654;50.784;20.604;2023-03-04T03:49:04;14.48;;;10.35;;
43990;SDS011;29654;50.784;20.604;2023-03-04T03:54:07;17.80;;;11.07;;
43990;SDS011;29654;50.784;20.604;2023-03-04T03:59:11;16.23;;;9.85;;
43990;SDS011;29654;50.784;20.604;2023-03-04T04:04:14;16.23;;;10.13;;
43990;SDS011;29654;50.784;20.604;2023-03-04T04:09:16;14.23;;;9.73;;
43990;SDS011;29654;50.784;20.604;2023-03-04T04:14:21;16.05;;;10.52;;
43990;SDS011;29654;50.784;20.604;2023-03-04T04:19:23;18.20;;;10.43;;
43990;SDS011;29654;50.784;20.604;2023-03-04T04:24:26;16.33;;;11.15;;
43990;SDS011;29654;50.784;20.604;2023-03-04T04:29:30;18.77;;;11.98;;
43990;SDS011;29654;50.784;20.604;2023-03-04T04:34:32;20.15;;;13.43;;
43990;SDS011;29654;50.784;20.604;2023-03-04T04:39:35;18.42;;;11.55;;
43990;SDS011;29654;50.784;20.604;2023-03-04T04:44:39;17.40;;;10.57;;
43990;SDS011;29654;50.784;20.604;2023-03-04T04:49:42;17.10;;;11.43;;
43990;SDS011;29654;50.784;20.604;2023-03-04T04:54:45;18.23;;;11.80;;
43990;SDS011;29654;50.784;20.604;2023-03-04T04:59:49;20.52;;;13.25;;
43990;SDS011;29654;50.784;20.604;2023-03-04T05:04:51;14.82;;;10.15;;
43990;SDS011;29654;50.784;20.604;2023-03-04T05:09:54;12.70;;;8.48;;
43990;SDS011;29654;50.784;20.604;2023-03-04T05:14:58;17.05;;;12.23;;
43990;SDS011;29654;50.784;20.604;2023-03-04T05:20:01;20.50;;;12.20;;
43990;SDS011;29654;50.784;20.604;2023-03-04T05:25:04;20.55;;;12.65;;
43990;SDS011;29654;50.784;20.604;2023-03-04T05:30:09;21.00;;;13.05;;
43990;SDS011;29654;50.784;20.604;2023-03-04T05:35:13;18.80;;;12.18;;
43990;SDS011;29654;50.784;20.604;2023-03-04T05:40:16;25.48;;;15.20;;
43990;SDS011;29654;50.784;20.604;2023-03-04T05:45:20;19.63;;;12.65;;
43990;SDS011;29654;50.784;20.604;2023-03-04T05:50:22;20.25;;;11.63;;
43990;SDS011;29654;50.784;20.604;2023-03-04T05:55:26;24.77;;;14.20;;
43990;SDS011;29654;50.784;20.604;2023-03-04T06:00:30;20.88;;;13.52;;
43990;SDS011;29654;50.784;20.604;2023-03-04T06:05:33;25.65;;;15.60;;
43990;SDS011;29654;50.784;20.604;2023-03-04T06:10:35;23.90;;;14.88;;
43990;SDS011;29654;50.784;20.604;2023-03-04T06:15:40;26.65;;;16.02;;
43990;SDS011;29654;50.784;20.604;2023-03-04T06:20:42;22.83;;;14.48;;
43990;SDS011;29654;50.784;20.604;2023-03-04T06:25:45;23.27;;;15.13;;
43990;SDS011;29654;50.784;20.604;2023-03-04T06:30:54;20.40;;;13.40;;
43990;SDS011;29654;50.784;20.604;2023-03-04T06:35:57;22.70;;;14.55;;
43990;SDS011;29654;50.784;20.604;2023-03-04T06:41:04;24.02;;;14.18;;
43990;SDS011;29654;50.784;20.604;2023-03-04T06:46:10;19.63;;;12.23;;
43990;SDS011;29654;50.784;20.604;2023-03-04T06:51:12;23.30;;;14.65;;
43990;SDS011;29654;50.784;20.604;2023-03-04T06:56:15;20.95;;;12.80;;
43990;SDS011;29654;50.784;20.604;2023-03-04T07:01:20;21.58;;;13.50;;
43990;SDS011;29654;50.784;20.604;2023-03-04T07:06:24;23.65;;;11.93;;
43990;SDS011;29654;50.784;20.604;2023-03-04T07:11:29;19.63;;;12.40;;
43990;SDS011;29654;50.784;20.604;2023-03-04T07:16:33;19.98;;;12.75;;
43990;SDS011;29654;50.784;20.604;2023-03-04T07:21:37;17.50;;;11.70;;
43990;SDS011;29654;50.784;20.604;2023-03-04T07:26:46;18.05;;;11.73;;
43990;SDS011;29654;50.784;20.604;2023-03-04T07:31:50;17.52;;;11.30;;
43990;SDS011;29654;50.784;20.604;2023-03-04T07:36:52;16.88;;;11.23;;
43990;SDS011;29654;50.784;20.604;2023-03-04T07:41:55;15.88;;;10.40;;
43990;SDS011;29654;50.784;20.604;2023-03-04T07:46:59;14.60;;;10.07;;
43990;SDS011;29654;50.784;20.604;2023-03-04T07:52:02;15.60;;;10.50;;
43990;SDS011;29654;50.784;20.604;2023-03-04T07:57:04;19.63;;;11.02;;
43990;SDS011;29654;50.784;20.604;2023-03-04T08:02:09;14.80;;;10.40;;
43990;SDS011;29654;50.784;20.604;2023-03-04T08:07:12;16.58;;;10.95;;
43990;SDS011;29654;50.784;20.604;2023-03-04T08:12:14;15.77;;;9.75;;
43990;SDS011;29654;50.784;20.604;2023-03-04T08:17:19;13.75;;;9.25;;
43990;SDS011;29654;50.784;20.604;2023-03-04T08:22:21;15.15;;;10.60;;
43990;SDS011;29654;50.784;20.604;2023-03-04T08:27:24;15.85;;;11.18;;
43990;SDS011;29654;50.784;20.604;2023-03-04T08:32:28;14.80;;;10.93;;
43990;SDS011;29654;50.784;20.604;2023-03-04T08:37:30;14.27;;;10.18;;
43990;SDS011;29654;50.784;20.604;2023-03-04T08:42:33;15.30;;;10.65;;
43990;SDS011;29654;50.784;20.604;2023-03-04T08:47:37;16.05;;;11.13;;
43990;SDS011;29654;50.784;20.604;2023-03-04T08:52:40;18.33;;;12.60;;
43990;SDS011;29654;50.784;20.604;2023-03-04T08:57:42;14.88;;;10.77;;
43990;SDS011;29654;50.784;20.604;2023-03-04T09:02:46;12.45;;;8.10;;
43990;SDS011;29654;50.784;20.604;2023-03-04T09:07:49;16.35;;;11.23;;
43990;SDS011;29654;50.784;20.604;2023-03-04T09:12:52;13.88;;;11.10;;
43990;SDS011;29654;50.784;20.604;2023-03-04T09:17:56;15.95;;;11.48;;
43990;SDS011;29654;50.784;20.604;2023-03-04T09:22:58;14.95;;;10.98;;
43990;SDS011;29654;50.784;20.604;2023-03-04T09:28:01;15.02;;;11.70;;
43990;SDS011;29654;50.784;20.604;2023-03-04T09:33:06;17.85;;;12.75;;
43990;SDS011;29654;50.784;20.604;2023-03-04T09:38:09;16.55;;;12.23;;
43990;SDS011;29654;50.784;20.604;2023-03-04T09:43:16;14.00;;;11.18;;
43990;SDS011;29654;50.784;20.604;2023-03-04T09:48:23;14.20;;;10.25;;
43990;SDS011;29654;50.784;20.604;2023-03-04T09:53:31;15.13;;;11.15;;
43990;SDS011;29654;50.784;20.604;2023-03-04T09:58:43;15.77;;;11.18;;
43990;SDS011;29654;50.784;20.604;2023-03-04T10:03:58;16.10;;;11.82;;
43990;SDS011;29654;50.784;20.604;2023-03-04T10:09:10;15.93;;;12.00;;
43990;SDS011;29654;50.784;20.604;2023-03-04T10:14:35;15.25;;;11.85;;
43990;SDS011;29654;50.784;20.604;2023-03-04T10:19:47;15.90;;;12.95;;
43990;SDS011;29654;50.784;20.604;2023-03-04T10:24:57;17.15;;;12.63;;
43990;SDS011;29654;50.784;20.604;2023-03-04T10:30:03;19.70;;;12.45;;
43990;SDS011;29654;50.784;20.604;2023-03-04T10:35:16;16.52;;;11.82;;
43990;SDS011;29654;50.784;20.604;2023-03-04T10:40:19;16.35;;;11.93;;
43990;SDS011;29654;50.784;20.604;2023-03-04T10:45:24;15.73;;;12.23;;
43990;SDS011;29654;50.784;20.604;2023-03-04T10:50:35;19.70;;;12.80;;
43990;SDS011;29654;50.784;20.604;2023-03-04T10:55:42;18.33;;;12.40;;
43990;SDS011;29654;50.784;20.604;2023-03-04T11:00:51;16.50;;;11.27;;
43990;SDS011;29654;50.784;20.604;2023-03-04T11:06:10;15.55;;;10.80;;
43990;SDS011;29654;50.784;20.604;2023-03-04T11:11:21;15.90;;;12.02;;
43990;SDS011;29654;50.784;20.604;2023-03-04T11:16:26;14.75;;;11.02;;
43990;SDS011;29654;50.784;20.604;2023-03-04T11:21:33;16.50;;;11.23;;
43990;SDS011;29654;50.784;20.604;2023-03-04T11:26:42;71.70;;;14.48;;
43990;SDS011;29654;50.784;20.604;2023-03-04T11:31:49;14.00;;;10.70;;
43990;SDS011;29654;50.784;20.604;2023-03-04T11:37:01;15.98;;;11.48;;
43990;SDS011;29654;50.784;20.604;2023-03-04T11:42:14;13.02;;;9.90;;
43990;SDS011;29654;50.784;20.604;2023-03-04T11:47:29;11.05;;;8.30;;
43990;SDS011;29654;50.784;20.604;2023-03-04T11:52:49;15.10;;;10.63;;
43990;SDS011;29654;50.784;20.604;2023-03-04T11:58:22;12.95;;;9.57;;
43990;SDS011;29654;50.784;20.604;2023-03-04T12:04:12;72.57;;;19.35;;
43990;SDS011;29654;50.784;20.604;2023-03-04T12:09:33;13.60;;;9.85;;
43990;SDS011;29654;50.784;20.604;2023-03-04T12:14:44;10.90;;;8.10;;
43990;SDS011;29654;50.784;20.604;2023-03-04T12:19:58;8.45;;;6.93;;
43990;SDS011;29654;50.784;20.604;2023-03-04T12:25:41;8.90;;;7.30;;
43990;SDS011;29654;50.784;20.604;2023-03-04T12:30:55;9.57;;;7.15;;
43990;SDS011;29654;50.784;20.604;2023-03-04T12:36:13;8.38;;;7.28;;
43990;SDS011;29654;50.784;20.604;2023-03-04T12:41:28;10.43;;;7.75;;
43990;SDS011;29654;50.784;20.604;2023-03-04T12:46:41;10.90;;;7.72;;
43990;SDS011;29654;50.784;20.604;2023-03-04T12:51:58;10.43;;;8.18;;
43990;SDS011;29654;50.784;20.604;2023-03-04T12:57:11;10.73;;;8.55;;
43990;SDS011;29654;50.784;20.604;2023-03-04T13:07:54;13.18;;;9.68;;
43990;SDS011;29654;50.784;20.604;2023-03-04T13:13:31;12.30;;;10.05;;
43990;SDS011;29654;50.784;20.604;2023-03-04T13:18:37;12.43;;;9.80;;
43990;SDS011;29654;50.784;20.604;2023-03-04T13:23:40;13.90;;;10.63;;
43990;SDS011;29654;50.784;20.604;2023-03-04T13:28:44;15.85;;;10.90;;
43990;SDS011;29654;50.784;20.604;2023-03-04T13:33:52;14.05;;;11.38;;
43990;SDS011;29654;50.784;20.604;2023-03-04T13:39:21;11.38;;;9.82;;
43990;SDS011;29654;50.784;20.604;2023-03-04T13:55:35;14.25;;;11.70;;
43990;SDS011;29654;50.784;20.604;2023-03-04T14:00:50;17.70;;;12.07;;
43990;SDS011;29654;50.784;20.604;2023-03-04T14:06:17;13.38;;;11.45;;
43990;SDS011;29654;50.784;20.604;2023-03-04T14:11:23;11.18;;;9.13;;
43990;SDS011;29654;50.784;20.604;2023-03-04T14:16:33;15.45;;;11.88;;
43990;SDS011;29654;50.784;20.604;2023-03-04T14:21:43;14.30;;;11.60;;
43990;SDS011;29654;50.784;20.604;2023-03-04T14:26:47;12.45;;;10.23;;
43990;SDS011;29654;50.784;20.604;2023-03-04T14:31:52;14.93;;;12.00;;
43990;SDS011;29654;50.784;20.604;2023-03-04T14:36:55;11.55;;;9.73;;
43990;SDS011;29654;50.784;20.604;2023-03-04T14:41:58;13.75;;;9.50;;
43990;SDS011;29654;50.784;20.604;2023-03-04T14:47:11;13.65;;;10.85;;
43990;SDS011;29654;50.784;20.604;2023-03-04T14:52:26;11.85;;;9.88;;
43990;SDS011;29654;50.784;20.604;2023-03-04T14:57:37;13.65;;;10.85;;
43990;SDS011;29654;50.784;20.604;2023-03-04T15:02:41;14.18;;;10.82;;
43990;SDS011;29654;50.784;20.604;2023-03-04T15:07:48;13.02;;;10.40;;
43990;SDS011;29654;50.784;20.604;2023-03-04T15:12:54;15.88;;;11.15;;
43990;SDS011;29654;50.784;20.604;2023-03-04T15:18:02;13.52;;;10.13;;
43990;SDS011;29654;50.784;20.604;2023-03-04T15:23:16;13.25;;;10.15;;
43990;SDS011;29654;50.784;20.604;2023-03-04T15:28:19;13.20;;;10.52;;
43990;SDS011;29654;50.784;20.604;2023-03-04T15:33:24;10.45;;;9.20;;
43990;SDS011;29654;50.784;20.604;2023-03-04T15:38:27;11.95;;;10.20;;
43990;SDS011;29654;50.784;20.604;2023-03-04T15:43:30;12.32;;;10.05;;
43990;SDS011;29654;50.784;20.604;2023-03-04T15:48:34;11.07;;;9.77;;
43990;SDS011;29654;50.784;20.604;2023-03-04T15:53:37;11.85;;;10.52;;
43990;SDS011;29654;50.784;20.604;2023-03-04T15:58:51;13.15;;;10.23;;
43990;SDS011;29654;50.784;20.604;2023-03-04T16:03:58;12.48;;;10.38;;
43990;SDS011;29654;50.784;20.604;2023-03-04T16:09:00;13.07;;;9.82;;
43990;SDS011;29654;50.784;20.604;2023-03-04T16:14:04;11.88;;;9.15;;
43990;SDS011;29654;50.784;20.604;2023-03-04T16:19:07;10.88;;;9.20;;
43990;SDS011;29654;50.784;20.604;2023-03-04T16:24:14;9.65;;;8.45;;
43990;SDS011;29654;50.784;20.604;2023-03-04T16:29:18;12.38;;;9.13;;
43990;SDS011;29654;50.784;20.604;2023-03-04T16:34:22;11.30;;;8.80;;
43990;SDS011;29654;50.784;20.604;2023-03-04T16:39:25;10.98;;;8.90;;
43990;SDS011;29654;50.784;20.604;2023-03-04T16:44:27;9.45;;;7.85;;
43990;SDS011;29654;50.784;20.604;2023-03-04T16:49:31;9.93;;;8.57;;
43990;SDS011;29654;50.784;20.604;2023-03-04T16:54:34;11.60;;;9.07;;
43990;SDS011;29654;50.784;20.604;2023-03-04T16:59:37;11.25;;;9.18;;
43990;SDS011;29654;50.784;20.604;2023-03-04T17:04:41;12.73;;;9.15;;
43990;SDS011;29654;50.784;20.604;2023-03-04T17:09:45;9.93;;;8.25;;
43990;SDS011;29654;50.784;20.604;2023-03-04T17:14:47;11.55;;;8.93;;
43990;SDS011;29654;50.784;20.604;2023-03-04T17:19:51;15.27;;;10.32;;
43990;SDS011;29654;50.784;20.604;2023-03-04T17:24:54;18.27;;;11.20;;
43990;SDS011;29654;50.784;20.604;2023-03-04T17:29:56;18.27;;;12.38;;
43990;SDS011;29654;50.784;20.604;2023-03-04T17:35:00;20.70;;;12.77;;
43990;SDS011;29654;50.784;20.604;2023-03-04T17:40:05;22.23;;;13.50;;
43990;SDS011;29654;50.784;20.604;2023-03-04T17:45:13;30.92;;;17.52;;
43990;SDS011;29654;50.784;20.604;2023-03-04T17:50:17;25.33;;;15.38;;
43990;SDS011;29654;50.784;20.604;2023-03-04T17:55:20;12.98;;;7.65;;
43990;SDS011;29654;50.784;20.604;2023-03-04T18:00:23;11.48;;;7.47;;
43990;SDS011;29654;50.784;20.604;2023-03-04T18:05:27;11.13;;;7.70;;
43990;SDS011;29654;50.784;20.604;2023-03-04T18:10:29;16.27;;;8.50;;
43990;SDS011;29654;50.784;20.604;2023-03-04T18:15:32;20.70;;;9.73;;
43990;SDS011;29654;50.784;20.604;2023-03-04T18:20:36;15.00;;;9.57;;
43990;SDS011;29654;50.784;20.604;2023-03-04T18:25:39;16.50;;;10.15;;
43990;SDS011;29654;50.784;20.604;2023-03-04T18:30:41;15.80;;;9.70;;
43990;SDS011;29654;50.784;20.604;2023-03-04T18:35:45;10.32;;;7.50;;
43990;SDS011;29654;50.784;20.604;2023-03-04T18:40:48;9.60;;;6.95;;
43990;SDS011;29654;50.784;20.604;2023-03-04T18:45:59;8.95;;;5.60;;
43990;SDS011;29654;50.784;20.604;2023-03-04T18:51:05;15.10;;;8.93;;
43990;SDS011;29654;50.784;20.604;2023-03-04T18:56:09;22.08;;;11.90;;
43990;SDS011;29654;50.784;20.604;2023-03-04T19:01:15;26.70;;;15.50;;
43990;SDS011;29654;50.784;20.604;2023-03-04T19:06:22;24.02;;;14.75;;
43990;SDS011;29654;50.784;20.604;2023-03-04T19:11:24;24.50;;;13.70;;
43990;SDS011;29654;50.784;20.604;2023-03-04T19:16:29;27.67;;;16.90;;
43990;SDS011;29654;50.784;20.604;2023-03-04T19:21:33;22.98;;;13.40;;
43990;SDS011;29654;50.784;20.604;2023-03-04T19:26:38;24.98;;;13.00;;
43990;SDS011;29654;50.784;20.604;2023-03-04T19:31:41;20.77;;;11.88;;
43990;SDS011;29654;50.784;20.604;2023-03-04T19:36:45;17.60;;;10.38;;
43990;SDS011;29654;50.784;20.604;2023-03-04T19:41:47;20.88;;;11.00;;
43990;SDS011;29654;50.784;20.604;2023-03-04T19:46:50;16.58;;;9.23;;
43990;SDS011;29654;50.784;20.604;2023-03-04T19:51:54;14.40;;;8.75;;
43990;SDS011;29654;50.784;20.604;2023-03-04T19:56:57;16.92;;;9.07;;
43990;SDS011;29654;50.784;20.604;2023-03-04T20:01:59;13.65;;;6.95;;
43990;SDS011;29654;50.784;20.604;2023-03-04T20:07:03;9.82;;;6.85;;
43990;SDS011;29654;50.784;20.604;2023-03-04T20:12:06;9.70;;;5.80;;
43990;SDS011;29654;50.784;20.604;2023-03-04T20:17:08;9.95;;;6.47;;
43990;SDS011;29654;50.784;20.604;2023-03-04T20:22:13;6.32;;;4.25;;
43990;SDS011;29654;50.784;20.604;2023-03-04T20:27:16;12.20;;;5.82;;
43990;SDS011;29654;50.784;20.604;2023-03-04T20:32:18;33.42;;;11.55;;
43990;SDS011;29654;50.784;20.604;2023-03-04T20:37:22;23.80;;;9.48;;
43990;SDS011;29654;50.784;20.604;2023-03-04T20:42:25;9.73;;;5.80;;
43990;SDS011;29654;50.784;20.604;2023-03-04T20:47:28;11.48;;;6.30;;
43990;SDS011;29654;50.784;20.604;2023-03-04T20:52:32;15.82;;;9.10;;
43990;SDS011;29654;50.784;20.604;2023-03-04T20:57:34;14.32;;;7.43;;
43990;SDS011;29654;50.784;20.604;2023-03-04T21:02:37;12.45;;;8.00;;
43990;SDS011;29654;50.784;20.604;2023-03-04T21:07:41;12.98;;;8.07;;
43990;SDS011;29654;50.784;20.604;2023-03-04T21:12:44;11.27;;;6.10;;
43990;SDS011;29654;50.784;20.604;2023-03-04T21:17:48;10.60;;;6.53;;
43990;SDS011;29654;50.784;20.604;2023-03-04T21:22:51;9.07;;;5.97;;
43990;SDS011;29654;50.784;20.604;2023-03-04T21:27:54;9.77;;;6.18;;
43990;SDS011;29654;50.784;20.604;2023-03-04T21:32:56;12.60;;;6.60;;
43990;SDS011;29654;50.784;20.604;2023-03-04T21:38:01;8.40;;;5.60;;
43990;SDS011;29654;50.784;20.604;2023-03-04T21:43:03;8.82;;;5.72;;
43990;SDS011;29654;50.784;20.604;2023-03-04T21:48:06;10.07;;;6.47;;
43990;SDS011;29654;50.784;20.604;2023-03-04T21:53:10;11.43;;;6.90;;
43990;SDS011;29654;50.784;20.604;2023-03-04T21:58:12;9.88;;;6.13;;
43990;SDS011;29654;50.784;20.604;2023-03-04T22:03:15;10.05;;;5.97;;
43990;SDS011;29654;50.784;20.604;2023-03-04T22:08:20;6.85;;;5.10;;
43990;SDS011;29654;50.784;20.604;2023-03-04T22:13:23;8.57;;;5.05;;
43990;SDS011;29654;50.784;20.604;2023-03-04T22:18:26;6.82;;;3.35;;
43990;SDS011;29654;50.784;20.604;2023-03-04T22:23:30;5.72;;;3.25;;
43990;SDS011;29654;50.784;20.604;2023-03-04T22:28:33;4.47;;;2.38;;
43990;SDS011;29654;50.784;20.604;2023-03-04T22:33:36;4.82;;;2.53;;
43990;SDS011;29654;50.784;20.604;2023-03-04T22:38:40;4.75;;;2.75;;
43990;SDS011;29654;50.784;20.604;2023-03-04T22:43:44;4.03;;;2.55;;
43990;SDS011;29654;50.784;20.604;2023-03-04T22:48:48;4.93;;;2.78;;
43990;SDS011;29654;50.784;20.604;2023-03-04T22:53:55;7.75;;;4.47;;
43990;SDS011;29654;50.784;20.604;2023-03-04T22:58:58;4.93;;;3.80;;
43990;SDS011;29654;50.784;20.604;2023-03-04T23:04:01;7.45;;;4.93;;
43990;SDS011;29654;50.784;20.604;2023-03-04T23:09:05;9.82;;;5.38;;
43990;SDS011;29654;50.784;20.604;2023-03-04T23:14:08;8.45;;;5.47;;
43990;SDS011;29654;50.784;20.604;2023-03-04T23:19:12;5.70;;;4.43;;
43990;SDS011;29654;50.784;20.604;2023-03-04T23:24:18;9.13;;;4.45;;
43990;SDS011;29654;50.784;20.604;2023-03-04T23:29:20;8.20;;;5.05;;
43990;SDS011;29654;50.784;20.604;2023-03-04T23:34:23;8.30;;;4.93;;
43990;SDS011;29654;50.784;20.604;2023-03-04T23:39:28;7.05;;;4.50;;
43990;SDS011;29654;50.784;20.604;2023-03-04T23:44:31;6.80;;;3.75;;
43990;SDS011;29654;50.784;20.604;2023-03-04T23:49:33;8.05;;;4.97;;
43990;SDS011;29654;50.784;20.604;2023-03-04T23:54:37;8.75;;;5.32;;
43990;SDS011;29654;50.784;20.604;2023-03-04T23:59:40;12.93;;;7.47;;
